createdAt,value
2019-03-19T00:02:24.285Z,31.15
2019-03-19T00:05:27.730Z,31.16
2019-03-19T00:08:31.240Z,31.12
2019-03-19T00:11:34.857Z,31.13
2019-03-19T00:14:38.281Z,31.08
2019-03-19T00:17:41.763Z,31.15
2019-03-19T00:20:45.264Z,31.14
2019-03-19T00:23:49.760Z,31.11
2019-03-19T00:26:53.278Z,31.11
2019-03-19T00:29:56.775Z,31.13
2019-03-19T00:33:00.279Z,31.14
2019-03-19T00:36:03.775Z,31.09
2019-03-19T00:39:07.646Z,31.13
2019-03-19T00:42:11.186Z,31.15
2019-03-19T00:45:15.701Z,31.10
2019-03-19T00:48:19.212Z,31.08
2019-03-19T00:51:22.718Z,31.14
2019-03-19T00:54:27.244Z,31.16
2019-03-19T00:57:30.849Z,31.14
2019-03-19T01:00:34.453Z,31.17
2019-03-19T01:03:37.951Z,31.19
2019-03-19T01:06:41.455Z,31.21
2019-03-19T01:09:45.963Z,31.22
2019-03-19T01:12:49.472Z,31.26
2019-03-19T01:15:52.974Z,31.22
2019-03-19T01:18:56.471Z,31.24
2019-03-19T01:22:01.109Z,31.25
2019-03-19T01:25:05.405Z,31.27
2019-03-19T01:28:09.016Z,31.27
2019-03-19T01:31:12.516Z,31.29
2019-03-19T01:34:16.022Z,31.25
2019-03-19T01:37:19.619Z,31.27
2019-03-19T01:40:23.018Z,31.27
2019-03-19T01:43:26.522Z,31.29
2019-03-19T01:46:31.056Z,31.30
2019-03-19T01:49:34.570Z,31.28
2019-03-19T01:52:38.049Z,31.30
2019-03-19T01:55:41.653Z,31.30
2019-03-19T01:58:45.260Z,31.36
2019-03-19T02:01:48.839Z,31.31
2019-03-19T02:04:52.475Z,31.33
2019-03-19T02:07:56.994Z,31.32
2019-03-19T02:11:00.485Z,31.31
2019-03-19T02:14:05.127Z,31.33
2019-03-19T02:17:08.709Z,31.30
2019-03-19T02:20:12.246Z,31.34
2019-03-19T02:23:15.706Z,31.33
2019-03-19T02:26:19.212Z,31.31
2019-03-19T02:29:22.720Z,31.28
2019-03-19T02:32:26.218Z,31.28
2019-03-19T02:35:29.730Z,31.30
2019-03-19T02:38:33.226Z,31.31
2019-03-19T02:41:36.714Z,31.32
2019-03-19T02:44:40.203Z,31.31
2019-03-19T02:47:43.795Z,31.32
2019-03-19T02:50:47.204Z,31.33
2019-03-19T02:53:51.379Z,31.33
2019-03-19T02:56:54.831Z,31.36
2019-03-19T02:59:58.440Z,31.37
2019-03-19T03:03:02.065Z,31.37
2019-03-19T03:06:05.657Z,31.38
2019-03-19T03:09:09.265Z,31.38
2019-03-19T03:12:13.780Z,31.36
2019-03-19T03:15:17.278Z,31.37
2019-03-19T03:18:22.832Z,31.35
2019-03-19T03:21:27.387Z,31.32
2019-03-19T03:24:31.888Z,31.33
2019-03-19T03:27:35.402Z,31.24
2019-03-19T03:30:38.926Z,31.27
2019-03-19T03:33:42.610Z,31.26
2019-03-19T03:36:46.088Z,31.26
2019-03-19T03:39:50.612Z,31.21
2019-03-19T03:42:54.147Z,31.26
2019-03-19T03:45:57.604Z,31.27
2019-03-19T03:49:01.177Z,31.32
2019-03-19T03:52:05.653Z,31.25
2019-03-19T03:55:09.331Z,31.28
2019-03-19T03:58:13.873Z,31.30
2019-03-19T04:01:17.369Z,31.27
2019-03-19T04:04:20.874Z,31.28
2019-03-19T04:07:30.324Z,31.29
2019-03-19T04:10:33.804Z,31.28
2019-03-19T04:13:37.343Z,31.26
2019-03-19T04:16:40.818Z,31.29
2019-03-19T04:19:44.343Z,31.34
2019-03-19T04:22:47.810Z,31.32
2019-03-19T04:25:51.343Z,31.34
2019-03-19T04:28:54.826Z,31.36
2019-03-19T04:31:58.322Z,31.36
2019-03-19T04:35:04.477Z,31.38
2019-03-19T04:38:09.103Z,31.36
2019-03-19T04:41:18.683Z,31.40
2019-03-19T04:44:22.178Z,31.37
2019-03-19T04:47:25.662Z,31.35
2019-03-19T04:50:29.151Z,31.39
2019-03-19T04:53:32.654Z,31.42
2019-03-19T04:56:36.167Z,31.42
2019-03-19T04:59:40.684Z,31.41
2019-03-19T05:02:44.190Z,31.42
2019-03-19T05:05:47.838Z,31.43
2019-03-19T05:08:51.399Z,31.39
2019-03-19T05:11:55.946Z,31.41
2019-03-19T05:14:59.438Z,31.38
2019-03-19T05:18:02.925Z,31.42
2019-03-19T05:21:06.432Z,31.35
2019-03-19T05:24:09.937Z,31.36
2019-03-19T05:27:14.540Z,31.36
2019-03-19T05:30:18.261Z,31.35
2019-03-19T05:33:21.859Z,31.37
2019-03-19T05:36:25.368Z,31.39
2019-03-19T05:39:28.861Z,31.37
2019-03-19T05:42:32.387Z,31.36
2019-03-19T05:45:35.853Z,31.39
2019-03-19T05:48:39.448Z,31.37
2019-03-19T05:51:43.068Z,31.37
2019-03-19T05:54:46.627Z,31.34
2019-03-19T05:57:50.693Z,31.35
2019-03-19T06:00:54.626Z,31.34
2019-03-19T06:03:58.082Z,31.38
2019-03-19T06:07:01.598Z,31.40
2019-03-19T06:10:05.479Z,31.31
2019-03-19T06:13:10.053Z,31.39
2019-03-19T06:16:13.638Z,31.35
2019-03-19T06:19:17.244Z,31.30
2019-03-19T06:22:20.747Z,31.37
2019-03-19T06:25:24.263Z,31.38
2019-03-19T06:28:27.734Z,31.40
2019-03-19T06:31:31.246Z,31.39
2019-03-19T06:34:34.767Z,31.35
2019-03-19T06:37:38.278Z,31.38
2019-03-19T06:40:43.787Z,31.37
2019-03-19T06:43:47.283Z,31.40
2019-03-19T06:46:50.809Z,31.40
2019-03-19T06:49:54.390Z,31.43
2019-03-19T06:52:58.001Z,31.46
2019-03-19T06:56:01.524Z,31.47
2019-03-19T06:59:06.070Z,31.43
2019-03-19T07:02:09.520Z,31.40
2019-03-19T07:05:13.098Z,31.40
2019-03-19T07:08:17.653Z,31.40
2019-03-19T07:11:23.108Z,31.41
2019-03-19T07:14:26.694Z,31.39
2019-03-19T07:17:30.373Z,31.36
2019-03-19T07:20:34.017Z,31.34
2019-03-19T07:23:38.573Z,31.43
2019-03-19T07:26:42.041Z,31.66
2019-03-19T07:29:45.528Z,31.68
2019-03-19T07:32:49.044Z,31.76
2019-03-19T07:35:52.546Z,31.78
2019-03-19T07:38:56.065Z,31.78
2019-03-19T07:41:59.567Z,31.84
2019-03-19T07:45:03.072Z,31.84
2019-03-19T07:48:06.557Z,31.89
2019-03-19T07:51:10.048Z,31.88
2019-03-19T07:54:13.535Z,31.90
2019-03-19T07:57:18.106Z,31.90
2019-03-19T08:00:22.603Z,31.90
2019-03-19T08:03:26.094Z,31.87
2019-03-19T08:06:29.645Z,31.88
2019-03-19T08:09:33.135Z,31.92
2019-03-19T08:12:36.792Z,31.92
2019-03-19T08:15:41.343Z,31.90
2019-03-19T08:18:44.823Z,31.88
2019-03-19T08:21:48.441Z,31.86
2019-03-19T08:24:52.055Z,31.83
2019-03-19T08:27:55.612Z,31.79
2019-03-19T08:30:59.256Z,31.75
2019-03-19T08:34:02.760Z,31.72
2019-03-19T08:37:06.236Z,31.67
2019-03-19T08:40:10.718Z,31.67
2019-03-19T08:43:14.276Z,31.65
2019-03-19T08:46:17.782Z,31.62
2019-03-19T08:49:22.334Z,31.60
2019-03-19T08:52:26.010Z,31.64
2019-03-19T08:55:29.489Z,31.64
2019-03-19T08:58:33.010Z,31.62
2019-03-19T09:01:37.599Z,31.63
2019-03-19T09:04:41.322Z,31.63
2019-03-19T09:07:44.946Z,31.64
2019-03-19T09:10:48.553Z,31.64
2019-03-19T09:13:52.140Z,31.62
2019-03-19T09:16:55.767Z,31.66
2019-03-19T09:19:59.338Z,31.65
2019-03-19T09:23:02.964Z,31.59
2019-03-19T09:26:07.604Z,31.58
2019-03-19T09:29:16.794Z,31.59
2019-03-19T09:32:16.482Z,31.62
2019-03-19T09:35:19.987Z,31.64
2019-03-19T09:38:30.654Z,31.60
2019-03-19T09:41:35.110Z,31.61
2019-03-19T09:44:38.631Z,31.58
2019-03-19T09:47:42.082Z,31.45
2019-03-19T09:50:46.655Z,31.43
2019-03-19T09:53:50.153Z,31.40
2019-03-19T09:56:53.667Z,31.47
2019-03-19T09:59:57.110Z,31.52
2019-03-19T10:03:00.656Z,31.52
2019-03-19T10:06:13.649Z,31.49
2019-03-19T10:09:09.513Z,31.50
2019-03-19T10:12:14.061Z,31.49
2019-03-19T10:15:17.825Z,31.45
2019-03-19T10:18:22.242Z,31.42
2019-03-19T10:21:25.771Z,31.45
2019-03-19T10:24:29.249Z,31.40
2019-03-19T10:27:32.702Z,31.34
2019-03-19T10:30:36.164Z,31.33
2019-03-19T10:33:39.775Z,31.27
2019-03-19T10:36:43.255Z,31.22
2019-03-19T10:39:46.685Z,31.20
2019-03-19T10:42:50.365Z,31.20
2019-03-19T10:45:53.855Z,31.18
2019-03-19T10:48:57.358Z,31.17
2019-03-19T10:52:00.964Z,31.24
2019-03-19T10:55:04.503Z,31.20
2019-03-19T10:58:11.250Z,31.21
2019-03-19T11:01:13.113Z,31.20
2019-03-19T11:04:17.626Z,31.24
2019-03-19T11:07:21.139Z,31.24
2019-03-19T11:10:24.619Z,31.20
2019-03-19T11:13:28.152Z,31.14
2019-03-19T11:16:31.663Z,31.09
2019-03-19T11:19:35.143Z,31.01
2019-03-19T11:22:38.660Z,30.97
2019-03-19T11:25:42.133Z,31.00
2019-03-19T11:28:45.641Z,30.86
2019-03-19T11:31:50.292Z,30.80
2019-03-19T11:34:53.963Z,30.65
2019-03-19T11:37:57.578Z,30.61
2019-03-19T11:41:01.168Z,30.53
2019-03-19T11:44:04.805Z,30.68
2019-03-19T11:47:08.397Z,30.65
2019-03-19T11:50:14.444Z,30.60
2019-03-19T11:53:17.945Z,30.80
2019-03-19T11:56:21.448Z,30.92
2019-03-19T11:59:25.977Z,31.03
2019-03-19T12:02:29.504Z,31.08
2019-03-19T12:05:34.031Z,31.11
2019-03-19T12:08:37.666Z,31.03
2019-03-19T12:11:41.282Z,31.03
2019-03-19T12:14:47.251Z,31.03
2019-03-19T12:17:51.285Z,31.00
2019-03-19T12:20:54.783Z,31.02
2019-03-19T12:23:59.425Z,30.99
2019-03-19T12:27:03.000Z,31.00
2019-03-19T12:30:06.618Z,31.00
2019-03-19T12:33:10.248Z,30.99
2019-03-19T12:36:19.662Z,30.93
2019-03-19T12:39:23.280Z,30.94
2019-03-19T12:42:27.132Z,30.96
2019-03-19T12:45:31.620Z,30.92
2019-03-19T12:48:35.119Z,30.88
2019-03-19T12:51:38.596Z,30.82
2019-03-19T12:54:42.147Z,30.74
2019-03-19T12:57:45.714Z,30.67
2019-03-19T13:00:49.323Z,30.67
2019-03-19T13:03:53.820Z,30.84
2019-03-19T13:06:58.810Z,30.62
2019-03-19T13:10:02.266Z,30.57
2019-03-19T13:13:05.792Z,30.52
2019-03-19T13:16:09.378Z,30.45
2019-03-19T13:19:12.976Z,30.62
2019-03-19T13:22:16.492Z,30.70
2019-03-19T13:25:20.018Z,30.70
2019-03-19T13:28:23.476Z,30.65
2019-03-19T13:31:27.167Z,30.72
2019-03-19T13:34:31.793Z,30.75
2019-03-19T13:37:35.438Z,30.67
2019-03-19T13:40:38.989Z,30.67
2019-03-19T13:43:43.555Z,30.65
2019-03-19T13:46:47.152Z,30.70
2019-03-19T13:49:50.666Z,30.72
2019-03-19T13:52:55.171Z,30.63
2019-03-19T13:55:58.676Z,30.78
2019-03-19T13:59:02.173Z,30.85
2019-03-19T14:02:05.673Z,30.93
2019-03-19T14:05:09.759Z,30.97
2019-03-19T14:08:13.290Z,31.00
2019-03-19T14:11:16.817Z,30.79
2019-03-19T14:14:20.396Z,30.71
2019-03-19T14:17:24.020Z,30.58
2019-03-19T14:20:28.532Z,30.67
2019-03-19T14:23:32.044Z,30.62
2019-03-19T14:26:35.545Z,30.61
2019-03-19T14:29:41.181Z,30.60
2019-03-19T14:32:44.878Z,30.65
2019-03-19T14:35:48.608Z,30.61
2019-03-19T14:38:52.194Z,30.66
2019-03-19T14:41:55.915Z,30.68
2019-03-19T14:44:59.381Z,30.66
2019-03-19T14:48:02.933Z,30.67
2019-03-19T14:51:07.434Z,30.67
2019-03-19T14:54:11.034Z,30.66
2019-03-19T14:57:14.627Z,30.68
2019-03-19T15:00:18.239Z,30.60
2019-03-19T15:03:21.823Z,30.60
2019-03-19T15:06:25.331Z,30.56
2019-03-19T15:09:28.953Z,30.59
2019-03-19T15:12:32.626Z,30.61
2019-03-19T15:15:36.287Z,30.58
2019-03-19T15:18:39.763Z,30.59
2019-03-19T15:21:43.303Z,30.60
2019-03-19T15:24:46.860Z,30.60
2019-03-19T15:27:50.555Z,30.52
2019-03-19T15:30:54.273Z,30.54
2019-03-19T15:34:01.995Z,30.49
2019-03-19T15:37:05.459Z,30.51
2019-03-19T15:40:11.449Z,30.52
2019-03-19T15:43:15.024Z,30.62
2019-03-19T15:46:18.632Z,30.62
2019-03-19T15:49:22.195Z,30.58
2019-03-19T15:52:27.670Z,30.52
2019-03-19T15:55:31.245Z,30.56
2019-03-19T15:58:34.894Z,30.56
2019-03-19T16:01:40.587Z,30.62
2019-03-19T16:04:45.177Z,30.66
2019-03-19T16:07:48.680Z,30.66
2019-03-19T16:10:53.301Z,30.68
2019-03-19T16:13:58.018Z,30.66
2019-03-19T16:17:01.638Z,30.65
2019-03-19T16:20:06.351Z,30.67
2019-03-19T16:23:09.790Z,30.69
2019-03-19T16:26:14.409Z,30.58
2019-03-19T16:29:17.883Z,30.58
2019-03-19T16:32:21.389Z,30.57
2019-03-19T16:35:24.911Z,30.62
2019-03-19T16:38:28.379Z,30.69
2019-03-19T16:41:31.913Z,30.71
2019-03-19T16:44:36.414Z,30.74
2019-03-19T16:47:39.918Z,30.82
2019-03-19T16:50:45.479Z,30.80
2019-03-19T16:53:48.961Z,30.82
2019-03-19T16:56:52.466Z,30.83
2019-03-19T16:59:55.970Z,30.86
2019-03-19T17:02:59.499Z,30.89
2019-03-19T17:06:03.118Z,30.92
2019-03-19T17:09:07.988Z,30.96
2019-03-19T17:12:11.721Z,30.93
2019-03-19T17:15:15.593Z,30.89
2019-03-19T17:18:19.216Z,30.92
2019-03-19T17:21:22.889Z,30.93
2019-03-19T17:24:26.424Z,30.93
2019-03-19T17:27:30.174Z,30.92
2019-03-19T17:30:33.664Z,30.92
2019-03-19T17:33:37.240Z,30.90
2019-03-19T17:36:41.880Z,30.96
2019-03-19T17:39:45.376Z,30.99
2019-03-19T17:42:48.876Z,30.99
2019-03-19T17:45:53.454Z,31.05
2019-03-19T17:48:57.108Z,31.08
2019-03-19T17:52:01.610Z,31.05
2019-03-19T17:55:06.022Z,31.10
2019-03-19T17:58:09.742Z,31.09
2019-03-19T18:01:17.403Z,31.14
2019-03-19T18:04:18.695Z,31.16
2019-03-19T18:07:22.219Z,31.15
2019-03-19T18:10:25.724Z,31.18
2019-03-19T18:13:30.234Z,31.17
2019-03-19T18:16:33.752Z,31.15
2019-03-19T18:19:38.260Z,31.05
2019-03-19T18:22:41.838Z,30.97
2019-03-19T18:25:45.631Z,30.95
2019-03-19T18:28:49.199Z,30.93
2019-03-19T18:31:54.721Z,30.92
2019-03-19T18:34:58.306Z,30.94
2019-03-19T18:38:03.775Z,31.23
2019-03-19T18:41:07.276Z,31.25
2019-03-19T18:44:10.777Z,31.24
2019-03-19T18:47:14.283Z,31.26
2019-03-19T18:50:17.777Z,31.32
2019-03-19T18:53:21.308Z,31.32
2019-03-19T18:56:25.797Z,31.33
2019-03-19T18:59:29.395Z,31.33
2019-03-19T19:02:33.117Z,31.36
2019-03-19T19:05:36.704Z,31.34
2019-03-19T19:08:40.227Z,31.34
2019-03-19T19:11:43.704Z,31.29
2019-03-19T19:14:47.268Z,31.24
2019-03-19T19:17:50.714Z,31.16
2019-03-19T19:20:55.255Z,31.18
2019-03-19T19:23:58.838Z,31.29
2019-03-19T19:27:03.526Z,31.34
2019-03-19T19:30:08.510Z,31.35
2019-03-19T19:33:13.147Z,31.38
2019-03-19T19:36:16.645Z,31.35
2019-03-19T19:39:21.586Z,31.35
2019-03-19T19:42:25.067Z,31.40
2019-03-19T19:45:28.668Z,31.40
2019-03-19T19:48:32.312Z,31.41
2019-03-19T19:51:35.957Z,31.38
2019-03-19T19:54:40.523Z,31.44
2019-03-19T19:57:44.317Z,31.41
2019-03-19T20:00:49.018Z,31.44
2019-03-19T20:03:52.637Z,31.39
2019-03-19T20:06:57.217Z,31.42
2019-03-19T20:10:00.670Z,31.44
2019-03-19T20:13:07.301Z,31.36
2019-03-19T20:16:10.948Z,31.38
2019-03-19T20:19:16.605Z,31.41
2019-03-19T20:22:20.221Z,31.43
2019-03-19T20:25:23.729Z,31.40
2019-03-19T20:28:30.298Z,31.41
2019-03-19T20:31:33.778Z,31.42
2019-03-19T20:34:37.391Z,31.37
2019-03-19T20:37:41.094Z,31.40
2019-03-19T20:40:44.791Z,31.39
2019-03-19T20:43:48.410Z,31.36
2019-03-19T20:46:52.004Z,31.42
2019-03-19T20:49:56.148Z,31.46
2019-03-19T20:52:59.628Z,31.46
2019-03-19T20:56:04.304Z,31.35
2019-03-19T20:59:07.837Z,31.26
2019-03-19T21:02:12.483Z,31.19
2019-03-19T21:05:16.185Z,31.15
2019-03-19T21:08:20.868Z,31.14
2019-03-19T21:11:24.302Z,31.12
2019-03-19T21:14:27.836Z,31.08
2019-03-19T21:17:31.325Z,31.09
2019-03-19T21:20:34.907Z,31.08
2019-03-19T21:23:38.546Z,31.09
2019-03-19T21:26:42.132Z,31.08
2019-03-19T21:29:45.836Z,31.05
2019-03-19T21:32:49.437Z,31.04
2019-03-19T21:35:52.938Z,31.03
2019-03-19T21:38:56.439Z,31.04
2019-03-19T21:41:59.940Z,31.07
2019-03-19T21:45:03.455Z,31.05
2019-03-19T21:48:06.959Z,31.04
2019-03-19T21:51:10.501Z,31.04
2019-03-19T21:54:14.188Z,31.06
2019-03-19T21:57:17.649Z,31.06
2019-03-19T22:00:21.187Z,31.04
2019-03-19T22:03:24.650Z,31.06
2019-03-19T22:06:28.133Z,31.08
2019-03-19T22:09:33.686Z,31.06
2019-03-19T22:12:37.129Z,31.05
2019-03-19T22:15:40.629Z,31.06
2019-03-19T22:18:44.075Z,31.10
2019-03-19T22:21:47.695Z,31.09
2019-03-19T22:24:51.212Z,31.12
2019-03-19T22:27:54.707Z,31.09
2019-03-19T22:30:58.206Z,31.11
2019-03-19T22:34:01.741Z,31.12
2019-03-19T22:37:05.205Z,31.12
2019-03-19T22:40:10.137Z,31.12
2019-03-19T22:43:13.643Z,31.12
2019-03-19T22:46:21.786Z,31.09
2019-03-19T22:49:22.499Z,31.15
2019-03-19T22:52:27.004Z,31.12
2019-03-19T22:55:30.504Z,31.12
2019-03-19T22:58:37.290Z,31.13
2019-03-19T23:01:40.806Z,31.13
2019-03-19T23:04:46.228Z,31.14
2019-03-19T23:07:49.727Z,31.17
2019-03-19T23:10:53.251Z,31.16
2019-03-19T23:13:56.914Z,31.13
2019-03-19T23:17:00.544Z,31.16
2019-03-19T23:20:10.528Z,31.19
2019-03-19T23:23:13.992Z,31.20
2019-03-19T23:26:17.502Z,31.19
2019-03-19T23:29:20.999Z,31.18
2019-03-19T23:32:24.886Z,31.18
2019-03-19T23:35:28.510Z,31.18
2019-03-19T23:38:31.973Z,31.18
2019-03-19T23:41:35.515Z,31.18
2019-03-19T23:44:39.169Z,31.17
2019-03-19T23:47:42.728Z,31.22
2019-03-19T23:50:46.237Z,31.20
2019-03-19T23:53:51.772Z,31.20
2019-03-19T23:56:55.263Z,31.21
2019-03-19T23:59:58.795Z,31.24
